Terminal Aerodrome Forecast
Issued by NWS

Home | Current Version | Previous Version | Text Only | Print | Product List | Glossary On
Versions: 1 2 3 4 5 6 7 8 9 10 11 12 13 14 15 16 17 18 19 20
000
FTUS43 KTOP 251700 CCA
TAFMHK
TAF COR
KMHK 251756Z 2518/2618 34010G17KT P6SM BKN014 OVC022
     FM251900 36009G17KT P6SM BKN024
     FM260000 03005KT P6SM OVC014
     FM260500 06009KT 6SM BR OVC007=

USA.gov is the U.S. government's official web portal to all federal, state and local government web resources and services.